createdAt,value
2023-02-22T00:02:26.129Z,100950.12
2023-02-22T00:04:59.406Z,100947.42
2023-02-22T00:07:31.439Z,100951.37
2023-02-22T00:10:04.254Z,100949.35
2023-02-22T00:12:36.894Z,100946.41
2023-02-22T00:15:10.537Z,100945.80
2023-02-22T00:17:43.678Z,100948.10
2023-02-22T00:20:19.569Z,100948.49
2023-02-22T00:22:53.830Z,100946.06
2023-02-22T00:25:26.963Z,100944.14
2023-02-22T00:27:59.360Z,100946.22
2023-02-22T00:30:34.260Z,100945.23
2023-02-22T00:33:07.926Z,100943.66
2023-02-22T00:35:39.745Z,100941.81
2023-02-22T00:38:13.932Z,100940.22
2023-02-22T00:40:46.891Z,100938.48
2023-02-22T00:43:19.977Z,100942.70
2023-02-22T00:45:54.275Z,100943.33
2023-02-22T00:48:26.431Z,100939.28
2023-02-22T00:50:59.291Z,100937.48
2023-02-22T00:53:31.380Z,100939.96
2023-02-22T00:56:04.144Z,100938.29
2023-02-22T00:58:36.526Z,100934.73
2023-02-22T01:01:09.536Z,100932.38
2023-02-22T01:03:41.730Z,100929.77
2023-02-22T01:06:14.667Z,100932.48
2023-02-22T01:08:49.628Z,100931.27
2023-02-22T01:11:22.771Z,100929.84
2023-02-22T01:13:55.782Z,100929.97
2023-02-22T01:16:29.144Z,100927.20
2023-02-22T01:19:01.861Z,100928.73
2023-02-22T01:21:34.146Z,100926.23
2023-02-22T01:24:06.596Z,100926.94
2023-02-22T01:26:39.766Z,100921.73
2023-02-22T01:29:15.555Z,100918.02
2023-02-22T01:31:53.178Z,100910.63
2023-02-22T01:34:26.538Z,100910.23
2023-02-22T01:36:59.428Z,100901.23
2023-02-22T01:39:32.366Z,100900.80
2023-02-22T01:42:04.443Z,100895.29
2023-02-22T01:44:39.127Z,100898.45
2023-02-22T01:47:11.395Z,100897.23
2023-02-22T01:49:48.300Z,100894.73
2023-02-22T01:52:23.291Z,100893.29
2023-02-22T01:54:58.210Z,100888.70
2023-02-22T01:57:33.281Z,100891.87
2023-02-22T02:00:11.534Z,100889.38
2023-02-22T02:02:47.055Z,100885.67
2023-02-22T02:05:20.474Z,100886.00
2023-02-22T02:07:51.155Z,100879.96
2023-02-22T02:10:24.733Z,100878.04
2023-02-22T02:12:59.131Z,100875.12
2023-02-22T02:15:34.254Z,100870.20
2023-02-22T02:18:09.368Z,100873.52
2023-02-22T02:20:49.504Z,100867.53
2023-02-22T02:23:55.322Z,100866.30
2023-02-22T02:27:05.599Z,100866.51
2023-02-22T02:30:17.162Z,100862.69
2023-02-22T02:33:03.161Z,100861.90
2023-02-22T02:35:49.363Z,100861.60
2023-02-22T02:38:32.880Z,100861.40
2023-02-22T02:41:12.671Z,100865.37
2023-02-22T02:43:50.508Z,100863.65
2023-02-22T02:46:28.175Z,100860.17
2023-02-22T02:49:03.874Z,100856.68
2023-02-22T02:51:38.946Z,100853.67
2023-02-22T02:54:13.637Z,100855.96
2023-02-22T02:56:47.530Z,100850.97
2023-02-22T02:59:34.560Z,100852.58
2023-02-22T03:02:29.718Z,100852.63
2023-02-22T03:05:14.706Z,100849.80
2023-02-22T03:08:04.176Z,100848.61
2023-02-22T03:10:50.876Z,100847.82
2023-02-22T03:13:36.738Z,100847.04
2023-02-22T03:16:19.830Z,100845.91
2023-02-22T03:19:00.907Z,100846.13
2023-02-22T03:21:43.769Z,100845.62
2023-02-22T03:24:22.192Z,100840.59
2023-02-22T03:27:00.502Z,100832.99
2023-02-22T03:29:35.864Z,100834.52
2023-02-22T03:32:15.174Z,100837.52
2023-02-22T03:34:53.349Z,100840.45
2023-02-22T03:37:29.230Z,100840.58
2023-02-22T03:40:07.608Z,100838.36
2023-02-22T03:42:42.352Z,100839.49
2023-02-22T03:45:18.269Z,100836.59
2023-02-22T03:47:53.462Z,100840.09
2023-02-22T03:50:30.062Z,100837.49
2023-02-22T03:53:01.989Z,100835.30
2023-02-22T03:55:34.574Z,100832.97
2023-02-22T03:58:11.228Z,100833.92
2023-02-22T04:00:44.889Z,100829.52
2023-02-22T04:03:17.833Z,100825.95
2023-02-22T04:05:49.631Z,100824.92
2023-02-22T04:08:22.293Z,100825.65
2023-02-22T04:10:55.092Z,100825.17
2023-02-22T04:13:27.603Z,100823.36
2023-02-22T04:15:59.804Z,100822.65
2023-02-22T04:18:31.790Z,100824.20
2023-02-22T04:21:04.267Z,100819.70
2023-02-22T04:23:36.716Z,100817.89
2023-02-22T04:26:09.612Z,100823.02
2023-02-22T04:28:41.858Z,100819.27
2023-02-22T04:31:14.310Z,100818.10
2023-02-22T04:33:46.808Z,100813.92
2023-02-22T04:36:18.786Z,100815.05
2023-02-22T04:38:50.782Z,100818.23
2023-02-22T04:41:24.477Z,100818.42
2023-02-22T04:43:57.590Z,100817.09
2023-02-22T04:46:29.551Z,100823.27
2023-02-22T04:49:01.603Z,100817.98
2023-02-22T04:51:33.346Z,100820.14
2023-02-22T04:54:06.322Z,100818.79
2023-02-22T04:56:38.799Z,100818.11
2023-02-22T04:59:10.186Z,100815.10
2023-02-22T05:01:42.569Z,100814.02
2023-02-22T05:04:15.229Z,100812.02
2023-02-22T05:06:48.175Z,100813.27
2023-02-22T05:09:20.407Z,100810.33
2023-02-22T05:11:52.494Z,100807.72
2023-02-22T05:14:27.297Z,100803.60
2023-02-22T05:17:01.190Z,100804.96
2023-02-22T05:19:33.460Z,100802.20
2023-02-22T05:22:06.101Z,100802.83
2023-02-22T05:24:38.773Z,100804.09
2023-02-22T05:27:12.305Z,100803.14
2023-02-22T05:29:44.155Z,100798.88
2023-02-22T05:32:16.012Z,100803.73
2023-02-22T05:34:48.065Z,100805.21
2023-02-22T05:37:20.218Z,100802.85
2023-02-22T05:39:52.944Z,100806.95
2023-02-22T05:42:25.013Z,100800.08
2023-02-22T05:44:57.424Z,100798.95
2023-02-22T05:47:29.746Z,100801.08
2023-02-22T05:50:02.328Z,100799.58
2023-02-22T05:52:33.846Z,100803.14
2023-02-22T05:55:06.113Z,100800.77
2023-02-22T05:57:38.571Z,100802.86
2023-02-22T06:00:17.071Z,100799.49
2023-02-22T06:02:48.987Z,100799.89
2023-02-22T06:05:21.356Z,100799.23
2023-02-22T06:07:54.923Z,100797.42
2023-02-22T06:10:27.676Z,100800.07
2023-02-22T06:13:00.845Z,100799.87
2023-02-22T06:15:32.715Z,100793.14
2023-02-22T06:18:05.148Z,100787.61
2023-02-22T06:20:37.351Z,100787.81
2023-02-22T06:23:09.730Z,100782.71
2023-02-22T06:25:41.354Z,100782.87
2023-02-22T06:28:13.624Z,100773.62
2023-02-22T06:30:46.663Z,100772.15
2023-02-22T06:33:19.053Z,100776.30
2023-02-22T06:35:51.691Z,100774.35
2023-02-22T06:38:27.983Z,100773.72
2023-02-22T06:41:00.343Z,100773.17
2023-02-22T06:43:32.350Z,100772.81
2023-02-22T06:46:04.382Z,100778.48
2023-02-22T06:48:38.664Z,100778.92
2023-02-22T06:51:11.854Z,100777.45
2023-02-22T06:53:44.746Z,100773.96
2023-02-22T06:56:16.083Z,100776.55
2023-02-22T06:58:49.959Z,100779.92
2023-02-22T07:01:22.467Z,100775.95
2023-02-22T07:03:55.061Z,100776.51
2023-02-22T07:06:27.549Z,100776.59
2023-02-22T07:09:00.268Z,100780.36
2023-02-22T07:11:32.334Z,100781.67
2023-02-22T07:14:04.714Z,100790.27
2023-02-22T07:16:36.842Z,100788.08
2023-02-22T07:19:09.618Z,100787.42
2023-02-22T07:21:42.189Z,100788.16
2023-02-22T07:24:14.611Z,100778.16
2023-02-22T07:26:47.313Z,100780.63
2023-02-22T07:29:19.822Z,100790.29
2023-02-22T07:31:53.503Z,100792.30
2023-02-22T07:34:26.529Z,100783.58
2023-02-22T07:36:59.226Z,100792.59
2023-02-22T07:39:31.759Z,100789.10
2023-02-22T07:42:04.295Z,100787.83
2023-02-22T07:44:37.878Z,100792.84
2023-02-22T07:47:13.082Z,100789.50
2023-02-22T07:49:45.600Z,100787.88
2023-02-22T07:52:18.449Z,100788.25
2023-02-22T07:54:51.917Z,100786.83
2023-02-22T07:57:25.014Z,100786.73
2023-02-22T07:59:56.837Z,100782.20
2023-02-22T08:02:29.882Z,100779.81
2023-02-22T08:05:02.590Z,100778.91
2023-02-22T08:07:35.847Z,100772.95
2023-02-22T08:10:08.653Z,100771.69
2023-02-22T08:12:41.927Z,100771.42
2023-02-22T08:15:20.943Z,100772.27
2023-02-22T08:17:54.554Z,100768.98
2023-02-22T08:20:28.548Z,100769.98
2023-02-22T08:23:01.265Z,100777.23
2023-02-22T08:25:34.710Z,100778.15
2023-02-22T08:28:09.283Z,100781.52
2023-02-22T08:30:44.503Z,100780.02
2023-02-22T08:33:20.175Z,100775.30
2023-02-22T08:35:53.431Z,100777.24
2023-02-22T08:38:29.339Z,100777.73
2023-02-22T08:41:01.151Z,100774.25
2023-02-22T08:43:34.173Z,100772.23
2023-02-22T08:46:06.331Z,100770.79
2023-02-22T08:48:40.223Z,100773.82
2023-02-22T08:51:13.017Z,100770.31
2023-02-22T08:53:46.246Z,100764.83
2023-02-22T08:56:18.094Z,100768.75
2023-02-22T08:58:50.521Z,100762.48
2023-02-22T09:01:32.913Z,100757.23
2023-02-22T09:04:06.069Z,100760.64
2023-02-22T09:06:42.054Z,100757.48
2023-02-22T09:09:15.777Z,100757.16
2023-02-22T09:11:48.439Z,100755.12
2023-02-22T09:14:21.464Z,100752.84
2023-02-22T09:16:54.077Z,100756.68
2023-02-22T09:19:27.425Z,100754.77
2023-02-22T09:22:00.263Z,100753.70
2023-02-22T09:24:32.993Z,100753.75
2023-02-22T09:27:08.404Z,100752.48
2023-02-22T09:29:41.546Z,100744.52
2023-02-22T09:32:14.538Z,100743.60
2023-02-22T09:34:48.983Z,100740.36
2023-02-22T09:37:21.885Z,100741.83
2023-02-22T09:39:54.665Z,100735.09
2023-02-22T09:42:34.988Z,100732.83
2023-02-22T09:45:13.522Z,100729.03
2023-02-22T09:47:51.031Z,100726.20
2023-02-22T09:50:28.478Z,100727.02
2023-02-22T09:53:05.575Z,100724.23
2023-02-22T09:55:43.004Z,100720.79
2023-02-22T09:58:27.700Z,100719.23
2023-02-22T10:01:07.505Z,100714.40
2023-02-22T10:03:48.602Z,100713.21
2023-02-22T10:06:24.782Z,100714.63
2023-02-22T10:09:01.776Z,100706.59
2023-02-22T10:11:59.805Z,100704.23
2023-02-22T10:15:05.205Z,100703.95
2023-02-22T10:17:46.641Z,100701.16
2023-02-22T10:20:37.645Z,100701.01
2023-02-22T10:23:20.671Z,100699.52
2023-02-22T10:25:59.054Z,100696.47
2023-02-22T10:28:37.121Z,100692.77
2023-02-22T10:31:15.212Z,100692.41
2023-02-22T10:33:56.329Z,100687.89
2023-02-22T10:36:29.360Z,100689.90
2023-02-22T10:39:08.426Z,100687.78
2023-02-22T10:41:46.177Z,100685.11
2023-02-22T10:44:19.039Z,100683.08
2023-02-22T10:46:51.250Z,100683.91
2023-02-22T10:49:25.953Z,100678.24
2023-02-22T10:52:05.273Z,100677.79
2023-02-22T10:54:41.886Z,100672.22
2023-02-22T10:57:15.300Z,100669.92
2023-02-22T10:59:47.746Z,100669.04
2023-02-22T11:02:25.095Z,100668.26
2023-02-22T11:04:59.209Z,100669.64
2023-02-22T11:07:33.298Z,100672.09
2023-02-22T11:10:08.722Z,100668.77
2023-02-22T11:12:42.742Z,100665.79
2023-02-22T11:15:32.145Z,100664.73
2023-02-22T11:18:07.885Z,100663.85
2023-02-22T11:20:42.372Z,100660.74
2023-02-22T11:23:15.111Z,100664.77
2023-02-22T11:25:47.902Z,100655.46
2023-02-22T11:28:31.460Z,100651.38
2023-02-22T11:31:15.582Z,100645.86
2023-02-22T11:36:41.241Z,100636.60
2023-02-22T11:39:29.745Z,100632.63
2023-02-22T11:42:20.275Z,100626.13
2023-02-22T11:45:10.170Z,100621.36
2023-02-22T11:47:56.358Z,100616.08
2023-02-22T11:50:40.855Z,100616.32
2023-02-22T11:53:34.088Z,100613.13
2023-02-22T11:56:28.469Z,100610.01
2023-02-22T11:59:17.233Z,100606.58
2023-02-22T12:01:54.201Z,100601.61
2023-02-22T12:04:53.531Z,100600.52
2023-02-22T12:07:50.520Z,100594.52
2023-02-22T12:10:40.891Z,100590.77
2023-02-22T12:13:28.581Z,100588.79
2023-02-22T12:16:03.757Z,100583.52
2023-02-22T12:18:41.150Z,100588.12
2023-02-22T12:21:17.234Z,100587.97
2023-02-22T12:23:55.777Z,100583.13
2023-02-22T12:26:32.350Z,100584.81
2023-02-22T12:29:14.809Z,100580.43
2023-02-22T12:31:52.028Z,100579.56
2023-02-22T12:34:36.251Z,100576.66
2023-02-22T12:37:16.512Z,100575.63
2023-02-22T12:40:01.248Z,100574.80
2023-02-22T12:42:43.299Z,100570.23
2023-02-22T12:45:23.033Z,100563.19
2023-02-22T12:48:02.326Z,100566.63
2023-02-22T12:50:36.746Z,100556.95
2023-02-22T12:53:20.309Z,100558.52
2023-02-22T12:55:59.196Z,100555.62
2023-02-22T12:58:35.487Z,100554.48
2023-02-22T13:01:18.235Z,100549.35
2023-02-22T13:03:50.644Z,100548.19
2023-02-22T13:06:42.642Z,100541.36
2023-02-22T13:09:38.243Z,100537.23
2023-02-22T13:12:18.260Z,100537.64
2023-02-22T13:15:01.941Z,100533.25
2023-02-22T13:17:45.025Z,100526.58
2023-02-22T13:20:21.831Z,100525.11
2023-02-22T13:23:00.002Z,100522.98
2023-02-22T13:25:39.444Z,100519.19
2023-02-22T13:28:24.569Z,100516.27
2023-02-22T13:31:13.142Z,100510.46
2023-02-22T13:34:04.019Z,100508.96
2023-02-22T13:36:55.382Z,100511.60
2023-02-22T13:39:55.910Z,100508.52
2023-02-22T13:42:59.913Z,100500.42
2023-02-22T13:45:53.884Z,100496.09
2023-02-22T13:48:38.240Z,100491.72
2023-02-22T13:51:15.256Z,100491.55
2023-02-22T13:53:56.515Z,100489.24
2023-02-22T13:56:30.319Z,100487.49
2023-02-22T13:59:04.180Z,100486.80
2023-02-22T14:01:49.256Z,100482.29
2023-02-22T14:04:39.226Z,100479.89
2023-02-22T14:07:56.106Z,100482.63
2023-02-22T14:10:52.134Z,100484.50
2023-02-22T14:13:27.030Z,100476.08
2023-02-22T14:16:21.233Z,100477.96
2023-02-22T14:19:06.698Z,100474.13
2023-02-22T14:21:56.940Z,100474.30
2023-02-22T14:24:29.974Z,100472.30
2023-02-22T14:27:06.658Z,100466.27
2023-02-22T14:29:40.563Z,100466.27
2023-02-22T14:32:15.553Z,100464.57
2023-02-22T14:34:58.179Z,100468.42
2023-02-22T14:37:32.019Z,100464.67
2023-02-22T14:40:13.658Z,100464.84
2023-02-22T14:42:51.134Z,100467.51
2023-02-22T14:45:29.825Z,100461.34
2023-02-22T14:48:12.788Z,100457.77
2023-02-22T14:50:53.643Z,100453.99
2023-02-22T14:53:37.167Z,100455.40
2023-02-22T14:56:17.004Z,100452.29
2023-02-22T14:58:56.888Z,100450.75
2023-02-22T15:01:48.881Z,100447.73
2023-02-22T15:04:29.163Z,100446.84
2023-02-22T15:07:03.277Z,100447.91
2023-02-22T15:09:38.124Z,100448.55
2023-02-22T15:12:24.655Z,100446.69
2023-02-22T15:15:22.774Z,100444.95
2023-02-22T15:17:59.823Z,100441.59
2023-02-22T15:20:32.962Z,100441.72
2023-02-22T15:23:06.813Z,100438.00
2023-02-22T15:25:41.899Z,100436.19
2023-02-22T15:28:18.664Z,100433.45
2023-02-22T15:30:51.969Z,100434.14
2023-02-22T15:33:38.982Z,100434.70
2023-02-22T15:36:18.984Z,100436.61
2023-02-22T15:38:57.852Z,100440.45
2023-02-22T15:41:34.723Z,100435.48
2023-02-22T15:44:23.792Z,100437.79
2023-02-22T15:46:57.115Z,100435.19
2023-02-22T15:49:34.585Z,100440.52
2023-02-22T15:52:12.476Z,100438.46
2023-02-22T15:54:48.929Z,100438.26
2023-02-22T15:57:25.764Z,100437.42
2023-02-22T16:00:00.329Z,100436.41
2023-02-22T16:02:42.284Z,100433.14
2023-02-22T16:05:18.761Z,100432.88
2023-02-22T16:07:54.504Z,100436.02
2023-02-22T16:10:33.935Z,100441.73
2023-02-22T16:13:31.498Z,100438.41
2023-02-22T16:16:06.611Z,100439.30
2023-02-22T16:18:42.786Z,100442.73
2023-02-22T16:21:17.479Z,100443.65
2023-02-22T16:23:52.111Z,100440.69
2023-02-22T16:26:33.406Z,100442.65
2023-02-22T16:29:09.556Z,100442.89
2023-02-22T16:31:42.242Z,100438.67
2023-02-22T16:34:17.878Z,100436.45
2023-02-22T16:36:51.954Z,100434.59
2023-02-22T16:39:27.766Z,100435.09
2023-02-22T16:42:03.196Z,100432.77
2023-02-22T16:44:36.089Z,100431.20
2023-02-22T16:47:07.889Z,100432.91
2023-02-22T16:49:42.959Z,100439.39
2023-02-22T16:52:15.985Z,100439.54
2023-02-22T16:54:50.286Z,100439.10
2023-02-22T16:57:24.608Z,100440.71
2023-02-22T16:59:57.408Z,100441.99
2023-02-22T17:02:30.354Z,100446.48
2023-02-22T17:05:02.816Z,100446.14
2023-02-22T17:07:35.144Z,100448.63
2023-02-22T17:10:08.157Z,100445.45
2023-02-22T17:12:44.704Z,100447.28
2023-02-22T17:15:22.707Z,100443.39
2023-02-22T17:17:56.559Z,100445.08
2023-02-22T17:20:31.829Z,100445.43
2023-02-22T17:23:08.794Z,100449.90
2023-02-22T17:25:45.024Z,100450.45
2023-02-22T17:28:17.540Z,100453.38
2023-02-22T17:30:50.262Z,100455.98
2023-02-22T17:33:26.987Z,100452.58
2023-02-22T17:36:02.187Z,100461.01
2023-02-22T17:38:35.302Z,100459.11
2023-02-22T17:41:11.188Z,100456.05
2023-02-22T17:43:43.841Z,100458.91
2023-02-22T17:46:19.712Z,100460.33
2023-02-22T17:48:55.991Z,100466.27
2023-02-22T17:51:30.689Z,100468.58
2023-02-22T17:54:03.339Z,100470.94
2023-02-22T17:56:35.829Z,100472.67
2023-02-22T17:59:09.690Z,100471.95
2023-02-22T18:01:44.355Z,100471.88
2023-02-22T18:04:16.887Z,100472.08
2023-02-22T18:06:48.912Z,100473.05
2023-02-22T18:09:21.224Z,100474.89
2023-02-22T18:11:53.798Z,100474.08
2023-02-22T18:14:26.042Z,100475.39
2023-02-22T18:16:58.249Z,100478.34
2023-02-22T18:19:31.737Z,100478.97
2023-02-22T18:22:05.135Z,100476.61
2023-02-22T18:24:38.280Z,100481.58
2023-02-22T18:27:12.562Z,100480.02
2023-02-22T18:29:45.566Z,100477.05
2023-02-22T18:32:18.714Z,100483.17
2023-02-22T18:34:51.526Z,100484.65
2023-02-22T18:37:24.497Z,100483.70
2023-02-22T18:39:57.582Z,100485.38
2023-02-22T18:42:31.546Z,100486.39
2023-02-22T18:45:05.089Z,100484.73
2023-02-22T18:47:42.693Z,100485.71
2023-02-22T18:50:17.861Z,100483.77
2023-02-22T18:52:50.604Z,100478.61
2023-02-22T18:55:24.379Z,100483.30
2023-02-22T18:57:57.060Z,100483.98
2023-02-22T19:00:31.161Z,100484.86
2023-02-22T19:03:06.509Z,100479.85
2023-02-22T19:05:39.442Z,100479.35
2023-02-22T19:08:12.137Z,100477.54
2023-02-22T19:10:45.017Z,100479.27
2023-02-22T19:13:16.584Z,100475.64
2023-02-22T19:15:47.018Z,100473.20
2023-02-22T19:18:17.655Z,100473.77
2023-02-22T19:20:58.853Z,100474.76
2023-02-22T19:23:34.328Z,100468.95
2023-02-22T19:26:09.330Z,100467.81
2023-02-22T19:28:40.370Z,100469.79
2023-02-22T19:31:16.355Z,100467.84
2023-02-22T19:33:48.429Z,100468.52
2023-02-22T19:36:20.136Z,100467.67
2023-02-22T19:38:50.603Z,100464.19
2023-02-22T19:41:22.705Z,100463.39
2023-02-22T19:43:55.791Z,100460.18
2023-02-22T19:46:26.443Z,100461.23
2023-02-22T19:48:57.315Z,100458.63
2023-02-22T19:51:29.204Z,100457.14
2023-02-22T19:54:02.390Z,100456.97
2023-02-22T19:56:35.203Z,100459.52
2023-02-22T19:59:12.507Z,100460.02
2023-02-22T20:01:44.727Z,100460.45
2023-02-22T20:04:18.589Z,100462.08
2023-02-22T20:06:53.786Z,100460.10
2023-02-22T20:09:29.785Z,100463.50
2023-02-22T20:12:00.411Z,100467.53
2023-02-22T20:14:30.876Z,100471.98
2023-02-22T20:17:01.676Z,100467.80
2023-02-22T20:19:32.403Z,100471.96
2023-02-22T20:22:03.191Z,100469.80
2023-02-22T20:24:33.634Z,100468.40
2023-02-22T20:27:04.041Z,100473.02
2023-02-22T20:29:34.529Z,100473.00
2023-02-22T20:32:05.620Z,100473.20
2023-02-22T20:34:36.291Z,100475.83
2023-02-22T20:37:06.844Z,100480.64
2023-02-22T20:39:38.374Z,100478.70
2023-02-22T20:42:11.689Z,100479.84
2023-02-22T20:44:42.862Z,100480.06
2023-02-22T20:47:13.226Z,100480.56
2023-02-22T20:49:44.280Z,100477.02
2023-02-22T20:52:14.889Z,100483.54
2023-02-22T20:54:45.511Z,100478.20
2023-02-22T20:57:16.137Z,100474.27
2023-02-22T20:59:47.632Z,100471.83
2023-02-22T21:02:18.258Z,100472.15
2023-02-22T21:04:48.893Z,100470.16
2023-02-22T21:07:22.369Z,100471.27
2023-02-22T21:09:52.669Z,100468.71
2023-02-22T21:12:23.225Z,100473.90
2023-02-22T21:14:54.026Z,100478.87
2023-02-22T21:17:28.839Z,100474.48
2023-02-22T21:19:59.421Z,100474.27
2023-02-22T21:22:30.165Z,100475.47
2023-02-22T21:25:00.983Z,100474.43
2023-02-22T21:27:31.348Z,100465.92
2023-02-22T21:30:01.752Z,100470.35
2023-02-22T21:32:32.872Z,100459.48
2023-02-22T21:35:03.460Z,100472.41
2023-02-22T21:37:34.599Z,100463.80
2023-02-22T21:40:11.239Z,100469.90
2023-02-22T21:42:41.774Z,100462.20
2023-02-22T21:45:13.557Z,100462.83
2023-02-22T21:47:46.308Z,100463.73
2023-02-22T21:50:17.957Z,100461.41
2023-02-22T21:52:49.108Z,100459.77
2023-02-22T21:55:20.120Z,100453.73
2023-02-22T21:57:50.549Z,100454.98
2023-02-22T22:00:29.382Z,100448.46
2023-02-22T22:03:05.834Z,100445.05
2023-02-22T22:05:39.248Z,100446.70
2023-02-22T22:08:13.253Z,100442.04
2023-02-22T22:10:43.616Z,100443.16
2023-02-22T22:13:14.570Z,100448.22
2023-02-22T22:15:45.058Z,100445.06
2023-02-22T22:18:15.696Z,100445.55
2023-02-22T22:20:46.001Z,100444.30
2023-02-22T22:23:17.257Z,100441.98
2023-02-22T22:25:51.054Z,100440.34
2023-02-22T22:28:21.399Z,100437.33
2023-02-22T22:30:53.998Z,100439.83
2023-02-22T22:33:26.513Z,100438.48
2023-02-22T22:35:59.534Z,100436.50
2023-02-22T22:38:30.048Z,100431.85
2023-02-22T22:41:05.489Z,100434.40
2023-02-22T22:43:37.085Z,100436.25
2023-02-22T22:46:09.388Z,100437.13
2023-02-22T22:48:40.869Z,100437.01
2023-02-22T22:51:18.307Z,100434.14
2023-02-22T22:53:50.343Z,100436.83
2023-02-22T22:56:25.907Z,100443.77
2023-02-22T22:59:00.154Z,100441.89
2023-02-22T23:01:34.233Z,100443.05
2023-02-22T23:04:07.785Z,100446.23
2023-02-22T23:06:40.684Z,100444.09
2023-02-22T23:09:15.111Z,100445.62
2023-02-22T23:11:47.780Z,100446.11
2023-02-22T23:14:19.856Z,100446.18
2023-02-22T23:16:51.422Z,100443.52
2023-02-22T23:19:22.871Z,100442.45
2023-02-22T23:21:55.829Z,100444.38
2023-02-22T23:24:27.510Z,100445.08
2023-02-22T23:27:00.339Z,100447.75
2023-02-22T23:29:32.163Z,100445.87
2023-02-22T23:32:02.624Z,100447.61
2023-02-22T23:34:35.854Z,100445.98
2023-02-22T23:37:10.041Z,100446.02
2023-02-22T23:39:40.968Z,100445.71
2023-02-22T23:42:11.292Z,100445.99
2023-02-22T23:44:42.177Z,100453.06
2023-02-22T23:47:12.552Z,100456.23
2023-02-22T23:49:49.393Z,100457.06
2023-02-22T23:52:24.040Z,100456.14
2023-02-22T23:54:54.725Z,100452.73
2023-02-22T23:57:25.983Z,100458.73
2023-02-22T23:59:56.645Z,100454.66
